Airfield :
LOGIN :

Register | Disclaimer

   EN    FR    IT 

 










Legend :    VFR   Marginal VFR   IFR   Intensive IFR   Very Intensive IFR
Visi :
Ceiling :
>= 8 km
>= 3000ft
5 to 8 km
1000 to 3000 ft
1500m to 5 km
500 to 1000 ft
800 to 1500m
200 to 500 ft
< 800m
< 200 ft
Symbols :   Thunderstorms  Fog  Heavy snow  Heavy precipitations  Wind > 20 kt
SIGMETs :     Misc.  Thunderstorms  Icing  Turbulence  Mountain Waves  Volcanic Ashes






- Airport Elevation : 1187 ft


LIBV - Gioia del Colle Bari

CURRENT METAR :
  • 151955Z 15016KT 7000 BKN010 16/15 Q1012 RMK BKN VIS MIN 7000 WIND THR32 16015KT WIND THR14 15017KT GRN

EXPIRED METARs :
  • 151855Z 15021KT 8000 SCT007 SCT010 16/16 Q1011 RMK BKN VIS MIN 8000 WIND THR32 16019KT WIND THR14 16020KT BLU
  • 151755Z 15016KT 9999 FEW008 SCT011 16/15 Q1011

TAF TAF LIBV
Valid from the 15 at 18:00 until the 16 at 03:00 UTC


151700Z 1518/1603 18020KT 8000 NSC
TEMPO 1521/1524 3000 BR SCT004 SCT008



MET'MAP, your aeronautical weather chart ! - Copyright ORBIFLY December 2007 - Disclaimer

ORBIFLY MET'MAP TEAM :

Programming & Development : Alexandra Zaïnal
Concept & Development : Baudouin d'Aumeries
Co-Development & Prog : Marc-Olivier Méhu
Technical & hardware support : Manuel Goepfert

Contact : metmap@orbifly.com




SOURCES & CREDITS :

   NOAA